sensor_id;sensor_type;location;lat;lon;timestamp;pressure;altitude;pressure_sealevel;temperature;humidity
53758;BME280;39674;59.860;30.672;2022-08-01T15:57:45;101107.75;;;14.90;100.00
53758;BME280;39674;59.860;30.672;2022-08-01T16:03:34;101088.16;;;14.63;100.00
53758;BME280;39674;59.860;30.672;2022-08-01T16:06:24;101019.88;;;14.21;100.00
53758;BME280;39674;59.860;30.672;2022-08-01T16:09:54;101079.66;;;14.72;100.00
53758;BME280;39674;59.860;30.672;2022-08-01T16:12:35;101057.03;;;14.50;100.00
53758;BME280;39674;59.860;30.672;2022-08-01T16:15:33;101053.44;;;14.51;100.00
53758;BME280;39674;59.860;30.672;2022-08-01T16:21:34;101004.69;;;14.09;100.00
53758;BME280;39674;59.860;30.672;2022-08-01T16:25:09;100996.91;;;14.06;100.00
53758;BME280;39674;59.860;30.672;2022-08-01T16:28:39;101065.56;;;14.55;100.00
53758;BME280;39674;59.860;30.672;2022-08-01T16:31:53;101018.34;;;14.17;100.00
53758;BME280;39674;59.860;30.672;2022-08-01T16:35:23;101110.41;;;14.76;100.00
53758;BME280;39674;59.860;30.672;2022-08-01T16:38:17;101041.97;;;14.22;100.00
53758;BME280;39674;59.860;30.672;2022-08-01T17:30:54;101005.16;;;14.16;100.00
53758;BME280;39674;59.860;30.672;2022-08-01T17:33:57;100977.19;;;13.95;100.00
53758;BME280;39674;59.860;30.672;2022-08-01T17:51:32;100912.31;;;13.85;100.00
53758;BME280;39674;59.860;30.672;2022-08-01T21:23:52;100625.88;;;14.34;100.00
53758;BME280;39674;59.860;30.672;2022-08-01T21:30:56;100691.09;;;14.78;100.00
53758;BME280;39674;59.860;30.672;2022-08-01T21:34:27;100599.50;;;14.31;100.00
53758;BME280;39674;59.860;30.672;2022-08-01T21:42:08;100626.50;;;14.50;100.00
53758;BME280;39674;59.860;30.672;2022-08-01T21:47:14;100572.53;;;14.24;100.00
53758;BME280;39674;59.860;30.672;2022-08-01T21:49:12;100687.38;;;14.94;100.00
53758;BME280;39674;59.860;30.672;2022-08-01T22:04:06;100561.03;;;14.49;100.00
53758;BME280;39674;59.860;30.672;2022-08-01T22:13:56;100572.84;;;14.71;100.00
53758;BME280;39674;59.860;30.672;2022-08-01T22:18:05;100612.47;;;15.00;100.00
53758;BME280;39674;59.860;30.672;2022-08-01T22:20:31;100593.84;;;15.00;100.00
53758;BME280;39674;59.860;30.672;2022-08-01T22:23:35;100528.25;;;14.61;100.00
53758;BME280;39674;59.860;30.672;2022-08-01T22:26:43;100546.31;;;14.82;100.00
53758;BME280;39674;59.860;30.672;2022-08-01T22:29:47;100578.59;;;15.02;100.00
53758;BME280;39674;59.860;30.672;2022-08-01T22:33:01;100579.41;;;15.15;100.00
53758;BME280;39674;59.860;30.672;2022-08-01T22:36:13;100576.03;;;15.13;100.00
53758;BME280;39674;59.860;30.672;2022-08-01T22:39:25;100563.97;;;15.20;100.00
53758;BME280;39674;59.860;30.672;2022-08-01T22:42:26;100523.22;;;14.96;100.00
53758;BME280;39674;59.860;30.672;2022-08-01T22:45:17;100505.28;;;14.86;100.00
53758;BME280;39674;59.860;30.672;2022-08-01T22:48:17;100495.72;;;14.84;100.00
53758;BME280;39674;59.860;30.672;2022-08-01T22:51:04;100550.56;;;15.22;100.00
53758;BME280;39674;59.860;30.672;2022-08-01T22:53:55;100549.38;;;15.26;100.00
53758;BME280;39674;59.860;30.672;2022-08-01T22:56:46;100533.53;;;15.24;100.00
53758;BME280;39674;59.860;30.672;2022-08-01T22:59:39;100465.03;;;14.91;100.00
53758;BME280;39674;59.860;30.672;2022-08-01T23:02:32;100481.72;;;15.17;100.00
53758;BME280;39674;59.860;30.672;2022-08-01T23:05:44;100516.53;;;15.38;100.00
53758;BME280;39674;59.860;30.672;2022-08-01T23:08:21;100500.78;;;15.35;100.00
53758;BME280;39674;59.860;30.672;2022-08-01T23:11:10;100515.84;;;15.48;100.00
53758;BME280;39674;59.860;30.672;2022-08-01T23:14:23;100491.47;;;15.41;100.00
53758;BME280;39674;59.860;30.672;2022-08-01T23:24:07;100417.00;;;15.05;100.00
53758;BME280;39674;59.860;30.672;2022-08-01T23:27:45;100525.25;;;15.76;100.00
53758;BME280;39674;59.860;30.672;2022-08-01T23:35:03;100470.44;;;15.38;100.00
